Terminal Aerodrome Forecast
Issued by NWS

Home | Current Version | Previous Version | Text Only | Print | Product List | Glossary On
Versions: 1 2 3 4 5 6 7 8 9 10 11 12 13 14 15 16
000
FTUS43 KILX 222300
TAFDEC
TAF
KDEC 222327Z 2300/2324 11005KT P6SM SKC
     FM230900 16004KT P6SM SCT250
     FM231800 19009KT P6SM BKN250=

USA.gov is the U.S. government's official web portal to all federal, state and local government web resources and services.